createdAt,value
2019-02-20T00:00:03.709Z,1023.5
2019-02-20T00:01:03.338Z,1023.5
2019-02-20T00:02:03.523Z,1023.5
2019-02-20T00:03:03.449Z,1023.6
2019-02-20T00:04:04.012Z,1023.4
2019-02-20T00:05:03.824Z,1023.4
2019-02-20T00:06:03.838Z,1023.4
2019-02-20T00:07:03.749Z,1023.6
2019-02-20T00:08:03.119Z,1023.5
2019-02-20T00:09:03.859Z,1023.5
2019-02-20T00:10:03.438Z,1023.6
2019-02-20T00:11:03.514Z,1023.5
2019-02-20T00:12:03.149Z,1023.6
2019-02-20T00:13:03.496Z,1023.4
2019-02-20T00:14:03.253Z,1023.5
2019-02-20T00:15:03.897Z,1023.5
2019-02-20T00:16:03.042Z,1023.5
2019-02-20T00:17:03.334Z,1023.5
2019-02-20T00:18:02.940Z,1023.4
2019-02-20T00:19:03.166Z,1023.5
2019-02-20T00:20:03.436Z,1023.6
2019-02-20T00:21:02.925Z,1023.4
2019-02-20T00:22:03.342Z,1023.6
2019-02-20T00:23:03.133Z,1023.6
2019-02-20T00:24:03.508Z,1023.7
2019-02-20T00:25:03.247Z,1023.6
2019-02-20T00:26:03.040Z,1023.8
2019-02-20T00:27:03.327Z,1023.6
2019-02-20T00:28:03.841Z,1023.6
2019-02-20T00:29:03.047Z,1023.6
2019-02-20T00:30:03.416Z,1023.7
2019-02-20T00:31:03.123Z,1023.5
2019-02-20T00:32:03.266Z,1023.6
2019-02-20T00:33:02.857Z,1023.7
2019-02-20T00:34:03.425Z,1023.8
2019-02-20T00:35:03.146Z,1023.8
2019-02-20T00:36:03.329Z,1023.7
2019-02-20T00:37:02.992Z,1023.8
2019-02-20T00:38:03.541Z,1023.7
2019-02-20T00:39:03.014Z,1023.7
2019-02-20T00:40:03.353Z,1023.9
2019-02-20T00:41:03.018Z,1023.9
2019-02-20T00:42:03.628Z,1023.9
2019-02-20T00:43:03.063Z,1023.8
2019-02-20T00:44:03.214Z,1023.8
2019-02-20T00:45:02.978Z,1023.9
2019-02-20T00:46:02.902Z,1023.8
2019-02-20T00:47:03.969Z,1023.8
2019-02-20T00:48:03.525Z,1023.8
2019-02-20T00:49:03.224Z,1024
2019-02-20T00:50:04.022Z,1023.9
2019-02-20T00:51:03.699Z,1023.9
2019-02-20T00:52:03.822Z,1023.9
2019-02-20T00:53:03.499Z,1023.8
2019-02-20T00:54:03.606Z,1023.9
2019-02-20T00:55:03.454Z,1023.8
2019-02-20T00:56:03.717Z,1023.9
2019-02-20T00:57:03.026Z,1023.8
2019-02-20T00:58:03.753Z,1023.9
2019-02-20T00:59:03.717Z,1023.9
2019-02-20T01:00:03.632Z,1023.9
2019-02-20T01:01:03.179Z,1023.9
2019-02-20T01:02:02.891Z,1023.9
2019-02-20T01:03:03.798Z,1023.9
2019-02-20T01:04:03.116Z,1023.9
2019-02-20T01:05:03.785Z,1023.9
2019-02-20T01:06:05.421Z,1023.9
2019-02-20T01:07:03.220Z,1023.8
2019-02-20T01:08:03.551Z,1023.9
2019-02-20T01:09:03.640Z,1023.9
2019-02-20T01:10:03.654Z,1023.9
2019-02-20T01:11:03.285Z,1023.8
2019-02-20T01:12:03.651Z,1023.9
2019-02-20T01:13:03.153Z,1023.9
2019-02-20T01:14:03.983Z,1023.8
2019-02-20T01:15:04.096Z,1023.9
2019-02-20T01:16:03.566Z,1023.9
2019-02-20T01:17:03.886Z,1023.9
2019-02-20T01:18:03.470Z,1023.8
2019-02-20T01:19:03.990Z,1023.8
2019-02-20T01:20:03.482Z,1023.8
2019-02-20T01:21:03.163Z,1023.7
2019-02-20T01:22:03.405Z,1023.7
2019-02-20T01:23:03.798Z,1023.7
2019-02-20T01:24:03.379Z,1023.7
2019-02-20T01:25:04.059Z,1023.7
2019-02-20T01:26:03.169Z,1023.7
2019-02-20T01:27:03.728Z,1023.6
2019-02-20T01:28:02.915Z,1023.8
2019-02-20T01:29:03.438Z,1023.7
2019-02-20T01:30:03.964Z,1023.8
2019-02-20T01:31:03.597Z,1023.7
2019-02-20T01:32:02.966Z,1023.8
2019-02-20T01:33:03.338Z,1023.7
2019-02-20T01:34:03.851Z,1023.7
2019-02-20T01:35:03.155Z,1024
2019-02-20T01:36:03.536Z,1023.8
2019-02-20T01:37:03.273Z,1023.9
2019-02-20T01:38:03.097Z,1024
2019-02-20T01:39:03.019Z,1023.9
2019-02-20T01:40:04.267Z,1023.9
2019-02-20T01:41:02.892Z,1023.9
2019-02-20T01:42:02.939Z,1024
2019-02-20T01:43:03.548Z,1023.8
2019-02-20T01:44:03.789Z,1023.9
2019-02-20T01:45:03.262Z,1023.9
2019-02-20T01:46:03.925Z,1023.9
2019-02-20T01:47:03.590Z,1023.9
2019-02-20T01:48:03.296Z,1023.8
2019-02-20T01:49:03.504Z,1023.9
2019-02-20T01:50:03.296Z,1023.8
2019-02-20T01:51:03.563Z,1023.9
2019-02-20T01:52:03.242Z,1023.8
2019-02-20T01:53:11.055Z,1023.8
2019-02-20T01:54:02.991Z,1023.8
2019-02-20T01:55:03.452Z,1023.8
2019-02-20T01:56:03.104Z,1023.8
2019-02-20T01:57:03.707Z,1023.8
2019-02-20T01:58:03.152Z,1023.8
2019-02-20T01:59:03.201Z,1023.9
2019-02-20T02:00:03.377Z,1023.8
2019-02-20T02:01:03.762Z,1023.7
2019-02-20T02:02:03.254Z,1023.7
2019-02-20T02:03:04.450Z,1023.6
2019-02-20T02:04:03.404Z,1023.7
2019-02-20T02:05:03.999Z,1023.8
2019-02-20T02:06:03.898Z,1023.7
2019-02-20T02:07:03.104Z,1023.8
2019-02-20T02:08:03.988Z,1023.7
2019-02-20T02:09:03.579Z,1023.8
2019-02-20T02:10:04.200Z,1023.8
2019-02-20T02:11:03.804Z,1023.8
2019-02-20T02:12:03.257Z,1023.7
2019-02-20T02:13:03.864Z,1023.7
2019-02-20T02:14:03.223Z,1023.7
2019-02-20T02:15:03.627Z,1023.7
2019-02-20T02:16:03.201Z,1023.6
2019-02-20T02:17:03.271Z,1023.7
2019-02-20T02:18:03.736Z,1023.7
2019-02-20T02:19:03.328Z,1023.8
2019-02-20T02:20:03.716Z,1023.8
2019-02-20T02:21:03.091Z,1023.8
2019-02-20T02:22:03.408Z,1023.8
2019-02-20T02:23:03.346Z,1023.8
2019-02-20T02:24:03.744Z,1023.7
2019-02-20T02:25:03.139Z,1023.8
2019-02-20T02:26:11.505Z,1023.9
2019-02-20T02:27:03.957Z,1023.8
2019-02-20T02:28:03.354Z,1023.9
2019-02-20T02:29:03.643Z,1023.9
2019-02-20T02:30:03.363Z,1023.8
2019-02-20T02:31:03.734Z,1023.8
2019-02-20T02:32:03.432Z,1023.9
2019-02-20T02:33:03.363Z,1023.9
2019-02-20T02:34:03.124Z,1023.8
2019-02-20T02:35:03.358Z,1023.8
2019-02-20T02:36:03.072Z,1023.8
2019-02-20T02:37:03.515Z,1023.8
2019-02-20T02:38:03.439Z,1023.8
2019-02-20T02:39:03.560Z,1023.8
2019-02-20T02:40:03.470Z,1023.9
2019-02-20T02:41:03.901Z,1023.9
2019-02-20T02:42:03.586Z,1024
2019-02-20T02:43:03.727Z,1023.9
2019-02-20T02:44:03.333Z,1023.9
2019-02-20T02:45:03.408Z,1023.9
2019-02-20T02:46:03.116Z,1023.9
2019-02-20T02:47:03.374Z,1024
2019-02-20T02:48:03.805Z,1023.9
2019-02-20T02:49:03.190Z,1024
2019-02-20T02:50:03.076Z,1023.9
2019-02-20T02:51:02.991Z,1023.9
2019-02-20T02:52:03.782Z,1023.9
2019-02-20T02:53:03.498Z,1023.9
2019-02-20T02:54:03.309Z,1023.9
2019-02-20T02:55:03.746Z,1023.8
2019-02-20T02:56:03.465Z,1023.9
2019-02-20T02:57:03.307Z,1023.9
2019-02-20T02:58:03.524Z,1023.9
2019-02-20T02:59:03.025Z,1023.9
2019-02-20T03:00:03.745Z,1023.9
2019-02-20T03:01:03.130Z,1023.8
2019-02-20T03:02:02.708Z,1023.9
2019-02-20T03:03:03.638Z,1023.9
2019-02-20T03:04:03.806Z,1023.9
2019-02-20T03:05:03.545Z,1024
2019-02-20T03:06:03.116Z,1024
2019-02-20T03:07:03.763Z,1024
2019-02-20T03:08:03.268Z,1023.9
2019-02-20T03:09:04.003Z,1024
2019-02-20T03:10:03.257Z,1024.1
2019-02-20T03:11:03.587Z,1023.9
2019-02-20T03:12:02.974Z,1024
2019-02-20T03:13:07.267Z,1024
2019-02-20T03:14:03.363Z,1024
2019-02-20T03:15:03.174Z,1023.9
2019-02-20T03:16:03.625Z,1023.9
2019-02-20T03:17:03.840Z,1023.9
2019-02-20T03:18:03.189Z,1023.9
2019-02-20T03:19:03.489Z,1023.9
2019-02-20T03:20:03.279Z,1024
2019-02-20T03:21:03.294Z,1024
2019-02-20T03:22:03.122Z,1023.9
2019-02-20T03:23:03.572Z,1024
2019-02-20T03:24:02.829Z,1024
2019-02-20T03:25:03.793Z,1024
2019-02-20T03:26:03.441Z,1024
2019-02-20T03:27:04.078Z,1024.1
2019-02-20T03:28:03.597Z,1024.1
2019-02-20T03:29:03.786Z,1024
2019-02-20T03:30:03.399Z,1024.2
2019-02-20T03:31:04.111Z,1024.2
2019-02-20T03:32:03.408Z,1024.1
2019-02-20T03:33:03.925Z,1024.1
2019-02-20T03:34:03.900Z,1024.1
2019-02-20T03:35:03.820Z,1024.2
2019-02-20T03:36:03.385Z,1024.1
2019-02-20T03:37:03.551Z,1024.1
2019-02-20T03:38:03.095Z,1024.1
2019-02-20T03:39:03.644Z,1024.1
2019-02-20T03:40:03.200Z,1024.2
2019-02-20T03:41:03.669Z,1024.2
2019-02-20T03:42:03.063Z,1024.1
2019-02-20T03:43:03.745Z,1024.2
2019-02-20T03:44:03.180Z,1024.2
2019-02-20T03:45:03.850Z,1024.1
2019-02-20T03:46:03.672Z,1024.1
2019-02-20T03:47:03.125Z,1024.1
2019-02-20T03:48:03.549Z,1024.2
2019-02-20T03:49:03.901Z,1024.2
2019-02-20T03:50:03.906Z,1024.2
2019-02-20T03:51:03.624Z,1024.2
2019-02-20T03:52:03.158Z,1024.3
2019-02-20T03:53:03.892Z,1024.2
2019-02-20T03:54:02.928Z,1024.2
2019-02-20T03:55:03.561Z,1024.3
2019-02-20T03:56:02.931Z,1024.3
2019-02-20T03:57:03.618Z,1024.3
2019-02-20T03:58:03.940Z,1024.2
2019-02-20T03:59:03.791Z,1024.3
2019-02-20T04:00:03.203Z,1024.2
2019-02-20T04:01:03.739Z,1024.2
2019-02-20T04:02:03.509Z,1024.2
2019-02-20T04:03:03.108Z,1024.3
2019-02-20T04:04:03.714Z,1024.2
2019-02-20T04:05:03.985Z,1024.2
2019-02-20T04:06:03.765Z,1024.3
2019-02-20T04:07:03.179Z,1024.2
2019-02-20T04:08:03.602Z,1024.2
2019-02-20T04:09:03.782Z,1024.2
2019-02-20T04:10:03.807Z,1024.3
2019-02-20T04:11:03.210Z,1024.2
2019-02-20T04:12:02.945Z,1024.2
2019-02-20T04:13:03.257Z,1024.2
2019-02-20T04:14:03.091Z,1024.2
2019-02-20T04:15:03.393Z,1024.2
2019-02-20T04:16:03.845Z,1024.3
2019-02-20T04:17:03.453Z,1024.4
2019-02-20T04:18:03.210Z,1024.6
2019-02-20T04:19:03.548Z,1024.4
2019-02-20T04:20:03.123Z,1024.3
2019-02-20T04:21:03.397Z,1024.3
2019-02-20T04:22:03.061Z,1024.4
2019-02-20T04:23:03.800Z,1024.4
2019-02-20T04:24:03.466Z,1024.4
2019-02-20T04:25:03.497Z,1024.4
2019-02-20T04:26:03.747Z,1024.4
2019-02-20T04:27:03.146Z,1024.4
2019-02-20T04:28:03.689Z,1024.4
2019-02-20T04:29:03.142Z,1024.4
2019-02-20T04:30:03.786Z,1024.4
2019-02-20T04:31:03.584Z,1024.4
2019-02-20T04:32:03.589Z,1024.3
2019-02-20T04:33:03.029Z,1024.4
2019-02-20T04:34:03.285Z,1024.5
2019-02-20T04:35:03.065Z,1024.4
2019-02-20T04:36:03.128Z,1024.4
2019-02-20T04:37:03.000Z,1024.5
2019-02-20T04:38:03.428Z,1024.5
2019-02-20T04:39:03.944Z,1024.5
2019-02-20T04:40:03.351Z,1024.5
2019-02-20T04:41:03.758Z,1024.3
2019-02-20T04:42:03.551Z,1024.4
2019-02-20T04:43:03.252Z,1024.4
2019-02-20T04:44:03.584Z,1024.4
2019-02-20T04:45:03.339Z,1024.5
2019-02-20T04:46:03.580Z,1024.5
2019-02-20T04:47:03.194Z,1024.5
2019-02-20T04:48:03.845Z,1024.4
2019-02-20T04:49:03.501Z,1024.5
2019-02-20T04:50:03.814Z,1024.5
2019-02-20T04:51:03.195Z,1024.4
2019-02-20T04:52:03.434Z,1024.4
2019-02-20T04:53:04.088Z,1024.4
2019-02-20T04:54:14.262Z,1024.5
2019-02-20T04:55:03.226Z,1024.5
2019-02-20T04:56:03.819Z,1024.6
2019-02-20T04:57:03.167Z,1024.6
2019-02-20T04:58:03.735Z,1024.6
2019-02-20T04:59:03.126Z,1024.6
2019-02-20T05:00:04.043Z,1024.6
2019-02-20T05:01:03.111Z,1024.6
2019-02-20T05:02:03.801Z,1024.6
2019-02-20T05:03:03.214Z,1024.6
2019-02-20T05:04:03.935Z,1024.7
2019-02-20T05:05:03.310Z,1024.6
2019-02-20T05:06:03.566Z,1024.6
2019-02-20T05:07:03.518Z,1024.7
2019-02-20T05:08:03.290Z,1024.6
2019-02-20T05:09:03.478Z,1024.5
2019-02-20T05:10:03.293Z,1024.5
2019-02-20T05:11:03.477Z,1024.5
2019-02-20T05:12:02.922Z,1024.5
2019-02-20T05:13:03.748Z,1024.6
2019-02-20T05:14:04.119Z,1024.5
2019-02-20T05:15:03.281Z,1024.5
2019-02-20T05:16:03.317Z,1024.6
2019-02-20T05:17:03.969Z,1024.6
2019-02-20T05:18:03.827Z,1024.6
2019-02-20T05:19:04.068Z,1024.5
2019-02-20T05:20:03.119Z,1024.6
2019-02-20T05:21:03.642Z,1024.6
2019-02-20T05:22:03.399Z,1024.6
2019-02-20T05:23:03.387Z,1024.6
2019-02-20T05:24:03.427Z,1024.7
2019-02-20T05:25:04.090Z,1024.7
2019-02-20T05:26:03.176Z,1024.6
2019-02-20T05:27:03.829Z,1024.7
2019-02-20T05:28:02.970Z,1024.6
2019-02-20T05:29:03.602Z,1024.7
2019-02-20T05:30:04.139Z,1024.7
2019-02-20T05:31:03.515Z,1024.8
2019-02-20T05:32:03.457Z,1024.8
2019-02-20T05:33:03.476Z,1024.7
2019-02-20T05:34:03.092Z,1024.7
2019-02-20T05:35:03.828Z,1024.7
2019-02-20T05:36:03.376Z,1024.7
2019-02-20T05:37:03.936Z,1024.8
2019-02-20T05:38:03.340Z,1024.8
2019-02-20T05:39:03.824Z,1024.9
2019-02-20T05:40:03.812Z,1024.9
2019-02-20T05:41:03.252Z,1024.9
2019-02-20T05:42:03.435Z,1024.9
2019-02-20T05:43:03.416Z,1024.7
2019-02-20T05:44:03.677Z,1024.8
2019-02-20T05:45:03.588Z,1024.8
2019-02-20T05:46:03.317Z,1024.8
2019-02-20T05:47:03.641Z,1024.8
2019-02-20T05:48:03.197Z,1024.8
2019-02-20T05:49:03.960Z,1024.7
2019-02-20T05:50:03.483Z,1024.8
2019-02-20T05:51:03.801Z,1024.8
2019-02-20T05:52:02.992Z,1024.8
2019-02-20T05:53:03.458Z,1024.9
2019-02-20T05:54:03.055Z,1024.9
2019-02-20T05:55:03.526Z,1024.9
2019-02-20T05:56:03.656Z,1024.8
2019-02-20T05:57:03.975Z,1025
2019-02-20T05:58:03.491Z,1025
2019-02-20T05:59:03.660Z,1024.9
2019-02-20T06:00:03.197Z,1025
2019-02-20T06:01:03.590Z,1024.9
2019-02-20T06:02:03.206Z,1025.1
2019-02-20T06:03:05.541Z,1025
2019-02-20T06:04:03.848Z,1025.1
2019-02-20T06:05:03.665Z,1025
2019-02-20T06:06:03.112Z,1025
2019-02-20T06:07:03.599Z,1025
2019-02-20T06:08:03.983Z,1025
2019-02-20T06:09:03.848Z,1024.9
2019-02-20T06:10:03.110Z,1024.9
2019-02-20T06:11:15.963Z,1025
2019-02-20T06:12:03.994Z,1024.9
2019-02-20T06:13:03.503Z,1025
2019-02-20T06:14:03.779Z,1025.1
2019-02-20T06:15:03.655Z,1025.1
2019-02-20T06:16:03.407Z,1025.1
2019-02-20T06:17:03.573Z,1025
2019-02-20T06:18:04.404Z,1025
2019-02-20T06:19:03.672Z,1025.1
2019-02-20T06:20:02.869Z,1025
2019-02-20T06:21:03.019Z,1024.9
2019-02-20T06:22:03.118Z,1025
2019-02-20T06:23:13.808Z,1025
2019-02-20T06:24:03.253Z,1024.9
2019-02-20T06:25:04.047Z,1025
2019-02-20T06:26:03.617Z,1025
2019-02-20T06:27:03.417Z,1025
2019-02-20T06:28:02.971Z,1025
2019-02-20T06:29:03.392Z,1025.1
2019-02-20T06:30:03.565Z,1025
2019-02-20T06:31:03.802Z,1025
2019-02-20T06:32:03.658Z,1025.1
2019-02-20T06:33:03.415Z,1025
2019-02-20T06:34:03.471Z,1025.1
2019-02-20T06:35:02.939Z,1025
2019-02-20T06:36:03.115Z,1025.1
2019-02-20T06:37:03.440Z,1025.1
2019-02-20T06:38:02.910Z,1025.1
2019-02-20T06:39:03.264Z,1025
2019-02-20T06:40:03.948Z,1025.1
2019-02-20T06:41:03.438Z,1025.1
2019-02-20T06:42:03.932Z,1025.1
2019-02-20T06:43:03.344Z,1025.2
2019-02-20T06:44:03.612Z,1025.1
2019-02-20T06:45:03.403Z,1025.1
2019-02-20T06:46:03.685Z,1025.1
2019-02-20T06:47:03.207Z,1025.2
2019-02-20T06:48:03.039Z,1025.2
2019-02-20T06:49:03.277Z,1025.2
2019-02-20T06:50:03.895Z,1025.2
2019-02-20T06:51:03.595Z,1025.1
2019-02-20T06:52:03.685Z,1025.2
2019-02-20T06:53:03.197Z,1025.2
2019-02-20T06:54:03.729Z,1025.2
2019-02-20T06:55:03.322Z,1025.3
2019-02-20T06:56:03.786Z,1025.3
2019-02-20T06:57:03.075Z,1025.3
2019-02-20T06:58:03.694Z,1025.3
2019-02-20T06:59:03.154Z,1025.3
2019-02-20T07:00:03.570Z,1025.3
2019-02-20T07:01:03.526Z,1025.2
2019-02-20T07:02:03.956Z,1025.3
2019-02-20T07:03:03.152Z,1025.3
2019-02-20T07:04:03.433Z,1025.4
2019-02-20T07:05:03.622Z,1025.4
2019-02-20T07:06:03.602Z,1025.4
2019-02-20T07:07:03.371Z,1025.5
2019-02-20T07:08:03.870Z,1025.5
2019-02-20T07:09:03.539Z,1025.4
2019-02-20T07:10:03.638Z,1025.3
2019-02-20T07:11:03.836Z,1025.3
2019-02-20T07:12:03.702Z,1025.3
2019-02-20T07:13:03.708Z,1025.4
2019-02-20T07:14:03.377Z,1025.4
2019-02-20T07:15:04.019Z,1025.4
2019-02-20T07:16:03.527Z,1025.4
2019-02-20T07:17:03.843Z,1025.4
2019-02-20T07:18:03.076Z,1025.4
2019-02-20T07:19:03.663Z,1025.4
2019-02-20T07:20:03.190Z,1025.4
2019-02-20T07:21:03.279Z,1025.4
2019-02-20T07:22:03.152Z,1025.4
2019-02-20T07:23:03.780Z,1025.4
2019-02-20T07:24:03.831Z,1025.3
2019-02-20T07:25:04.232Z,1025.4
2019-02-20T07:26:03.898Z,1025.4
2019-02-20T07:27:03.485Z,1025.4
2019-02-20T07:28:03.719Z,1025.4
2019-02-20T07:29:03.443Z,1025.4
2019-02-20T07:30:03.069Z,1025.3
2019-02-20T07:31:03.474Z,1025.4
2019-02-20T07:32:04.081Z,1025.4
2019-02-20T07:33:03.530Z,1025.2
2019-02-20T07:34:05.825Z,1025.4
2019-02-20T07:35:03.225Z,1025.2
2019-02-20T07:36:03.213Z,1025.2
2019-02-20T07:37:03.761Z,1025.3
2019-02-20T07:38:03.129Z,1025.3
2019-02-20T07:39:03.816Z,1025.3
2019-02-20T07:40:03.349Z,1025.2
2019-02-20T07:41:03.897Z,1025.2
2019-02-20T07:42:03.095Z,1025.4
2019-02-20T07:43:03.668Z,1025.2
2019-02-20T07:44:02.893Z,1025.2
2019-02-20T07:45:03.627Z,1025.3
2019-02-20T07:46:02.981Z,1025.3
2019-02-20T07:47:03.745Z,1025.2
2019-02-20T07:48:03.214Z,1025.2
2019-02-20T07:49:03.707Z,1025.4
2019-02-20T07:50:04.089Z,1025.3
2019-02-20T07:51:03.767Z,1025.4
2019-02-20T07:52:03.262Z,1025.3
2019-02-20T07:53:03.671Z,1025.3
2019-02-20T07:54:03.137Z,1025.4
2019-02-20T07:55:14.201Z,1025.4
2019-02-20T07:56:03.911Z,1025.3
2019-02-20T07:57:03.517Z,1025.4
2019-02-20T07:58:03.192Z,1025.5
2019-02-20T07:59:03.816Z,1025.3
2019-02-20T08:00:03.516Z,1025.4
2019-02-20T08:01:04.013Z,1025.4
2019-02-20T08:02:03.144Z,1025.6
2019-02-20T08:03:03.396Z,1025.5
2019-02-20T08:04:03.212Z,1025.4
2019-02-20T08:05:04.062Z,1025.5
2019-02-20T08:06:03.423Z,1025.4
2019-02-20T08:07:03.839Z,1025.5
2019-02-20T08:08:03.072Z,1025.4
2019-02-20T08:09:03.897Z,1025.4
2019-02-20T08:10:03.356Z,1025.4
2019-02-20T08:11:03.580Z,1025.5
2019-02-20T08:12:03.543Z,1025.3
2019-02-20T08:13:03.381Z,1025.4
2019-02-20T08:14:03.827Z,1025.5
2019-02-20T08:15:03.305Z,1025.5
2019-02-20T08:16:03.786Z,1025.5
2019-02-20T08:17:03.233Z,1025.5
2019-02-20T08:18:03.971Z,1025.5
2019-02-20T08:19:03.351Z,1025.4
2019-02-20T08:20:03.646Z,1025.4
2019-02-20T08:21:03.342Z,1025.4
2019-02-20T08:22:03.166Z,1025.4
2019-02-20T08:23:03.310Z,1025.4
2019-02-20T08:24:03.578Z,1025.4
2019-02-20T08:25:03.326Z,1025.3
2019-02-20T08:26:03.528Z,1025.4
2019-02-20T08:27:02.994Z,1025.4
2019-02-20T08:28:03.205Z,1025.4
2019-02-20T08:29:03.754Z,1025.4
2019-02-20T08:30:03.318Z,1025.4
2019-02-20T08:31:03.867Z,1025.2
2019-02-20T08:32:03.212Z,1025.3
2019-02-20T08:33:03.616Z,1025.3
2019-02-20T08:34:03.637Z,1025.1
2019-02-20T08:35:03.612Z,1025.2
2019-02-20T08:36:03.130Z,1025
2019-02-20T08:37:03.687Z,1025.1
2019-02-20T08:38:04.024Z,1025.1
2019-02-20T08:39:03.273Z,1025
2019-02-20T08:40:03.908Z,1024.9
2019-02-20T08:41:03.513Z,1024.9
2019-02-20T08:42:03.722Z,1024.9
2019-02-20T08:43:03.421Z,1024.8
2019-02-20T08:44:03.446Z,1024.9
2019-02-20T08:45:02.936Z,1024.9
2019-02-20T08:46:03.346Z,1024.9
2019-02-20T08:47:03.189Z,1024.8
2019-02-20T08:48:03.543Z,1024.9
2019-02-20T08:49:03.336Z,1024.9
2019-02-20T08:50:03.445Z,1024.8
2019-02-20T08:51:02.943Z,1024.8
2019-02-20T08:52:03.538Z,1024.8
2019-02-20T08:53:03.493Z,1024.7
2019-02-20T08:54:04.993Z,1024.7
2019-02-20T08:55:03.842Z,1024.6
2019-02-20T08:56:03.217Z,1024.7
2019-02-20T08:57:03.669Z,1024.7
2019-02-20T08:58:03.021Z,1024.6
2019-02-20T08:59:03.434Z,1024.6
2019-02-20T09:00:04.015Z,1024.6
2019-02-20T09:01:03.383Z,1024.6
2019-02-20T09:02:03.931Z,1024.6
2019-02-20T09:03:03.317Z,1024.6
2019-02-20T09:04:03.139Z,1024.6
2019-02-20T09:05:03.380Z,1024.6
2019-02-20T09:06:03.968Z,1024.7
2019-02-20T09:07:03.315Z,1024.7
2019-02-20T09:08:03.613Z,1024.6
2019-02-20T09:09:03.429Z,1024.5
2019-02-20T09:10:03.898Z,1024.5
2019-02-20T09:11:03.278Z,1024.4
2019-02-20T09:12:03.606Z,1024.4
2019-02-20T09:13:03.126Z,1024.3
2019-02-20T09:14:03.589Z,1024.4
2019-02-20T09:15:03.361Z,1024.4
2019-02-20T09:16:03.520Z,1024.5
2019-02-20T09:17:02.951Z,1024.5
2019-02-20T09:18:03.771Z,1024.5
2019-02-20T09:19:04.011Z,1024.5
2019-02-20T09:20:03.234Z,1024.5
2019-02-20T09:21:03.812Z,1024.5
2019-02-20T09:22:03.005Z,1024.5
2019-02-20T09:23:03.869Z,1024.5
2019-02-20T09:24:03.137Z,1024.5
2019-02-20T09:25:03.810Z,1024.5
2019-02-20T09:26:03.106Z,1024.6
2019-02-20T09:27:03.675Z,1024.6
2019-02-20T09:28:02.967Z,1024.6
2019-02-20T09:29:03.395Z,1024.6
2019-02-20T09:30:03.082Z,1024.5
2019-02-20T09:31:03.525Z,1024.5
2019-02-20T09:32:02.749Z,1024.6
2019-02-20T09:33:03.492Z,1024.6
2019-02-20T09:34:03.947Z,1024.6
2019-02-20T09:35:05.581Z,1024.5
2019-02-20T09:36:03.810Z,1024.6
2019-02-20T09:37:03.191Z,1024.7
2019-02-20T09:38:02.879Z,1024.5
2019-02-20T09:39:03.467Z,1024.6
2019-02-20T09:40:04.070Z,1024.6
2019-02-20T09:41:03.124Z,1024.7
2019-02-20T09:42:03.798Z,1024.6
2019-02-20T09:43:03.166Z,1024.7
2019-02-20T09:44:03.709Z,1024.6
2019-02-20T09:45:03.178Z,1024.6
2019-02-20T09:46:04.026Z,1024.6
2019-02-20T09:47:03.027Z,1024.5
2019-02-20T09:48:03.673Z,1024.7
2019-02-20T09:49:02.851Z,1024.7
2019-02-20T09:50:03.444Z,1024.6
2019-02-20T09:51:03.872Z,1024.9
2019-02-20T09:52:03.568Z,1024.7
2019-02-20T09:53:03.490Z,1024.7
2019-02-20T09:54:03.117Z,1024.7
2019-02-20T09:55:03.362Z,1024.6
2019-02-20T09:56:03.003Z,1024.5
2019-02-20T09:57:03.169Z,1024.6
2019-02-20T09:58:04.046Z,1024.6
2019-02-20T09:59:03.040Z,1024.6
2019-02-20T10:00:03.323Z,1024.4
2019-02-20T10:01:04.331Z,1024.5
2019-02-20T10:02:03.424Z,1024.5
2019-02-20T10:03:03.869Z,1024.6
2019-02-20T10:04:03.291Z,1024.6
2019-02-20T10:05:03.770Z,1024.6
2019-02-20T10:06:03.215Z,1024.7
2019-02-20T10:07:03.537Z,1024.6
2019-02-20T10:08:04.879Z,1024.7
2019-02-20T10:09:03.322Z,1024.7
2019-02-20T10:10:04.048Z,1024.8
2019-02-20T10:11:03.146Z,1024.8
2019-02-20T10:12:03.700Z,1024.8
2019-02-20T10:13:03.309Z,1024.8
2019-02-20T10:14:03.578Z,1024.8
2019-02-20T10:15:03.332Z,1024.7
2019-02-20T10:16:03.771Z,1024.6
2019-02-20T10:17:03.590Z,1024.7
2019-02-20T10:18:03.855Z,1024.7
2019-02-20T10:19:03.164Z,1024.8
2019-02-20T10:20:03.652Z,1024.8
2019-02-20T10:21:03.018Z,1024.6
2019-02-20T10:22:03.435Z,1024.8
2019-02-20T10:23:02.946Z,1024.6
2019-02-20T10:24:03.723Z,1024.8
2019-02-20T10:25:03.058Z,1024.6
2019-02-20T10:26:03.566Z,1024.6
2019-02-20T10:27:03.541Z,1024.6
2019-02-20T10:28:02.928Z,1024.6
2019-02-20T10:29:03.599Z,1024.6
2019-02-20T10:30:03.874Z,1024.6
2019-02-20T10:31:03.428Z,1024.7
2019-02-20T10:32:03.800Z,1024.7
2019-02-20T10:33:03.281Z,1024.6
2019-02-20T10:34:03.696Z,1024.7
2019-02-20T10:35:03.115Z,1024.6
2019-02-20T10:36:04.008Z,1024.7
2019-02-20T10:37:03.757Z,1024.6
2019-02-20T10:38:03.137Z,1024.6
2019-02-20T10:39:03.385Z,1024.6
2019-02-20T10:40:03.325Z,1024.5
2019-02-20T10:41:03.495Z,1024.5
2019-02-20T10:42:03.206Z,1024.5
2019-02-20T10:43:04.063Z,1024.5
2019-02-20T10:44:03.303Z,1024.5
2019-02-20T10:45:03.553Z,1024.5
2019-02-20T10:46:03.910Z,1024.4
2019-02-20T10:47:03.323Z,1024.4
2019-02-20T10:48:03.669Z,1024.5
2019-02-20T10:49:03.545Z,1024.4
2019-02-20T10:50:03.831Z,1024.3
2019-02-20T10:51:03.326Z,1024.3
2019-02-20T10:52:03.555Z,1024.2
2019-02-20T10:53:04.035Z,1024.5
2019-02-20T10:54:03.590Z,1024.5
2019-02-20T10:55:03.236Z,1024.5
2019-02-20T10:56:10.143Z,1024.4
2019-02-20T10:57:03.951Z,1024.4
2019-02-20T10:58:03.510Z,1024.5
2019-02-20T10:59:03.004Z,1024.6
2019-02-20T11:00:03.444Z,1024.6
2019-02-20T11:01:03.161Z,1024.6
2019-02-20T11:02:03.318Z,1024.6
2019-02-20T11:03:03.644Z,1024.6
2019-02-20T11:04:03.167Z,1024.6
2019-02-20T11:05:03.622Z,1024.7
2019-02-20T11:06:03.399Z,1024.6
2019-02-20T11:07:03.740Z,1024.6
2019-02-20T11:08:03.351Z,1024.6
2019-02-20T11:09:03.562Z,1024.7
2019-02-20T11:10:03.153Z,1024.7
2019-02-20T11:11:03.347Z,1024.6
2019-02-20T11:12:03.434Z,1024.6
2019-02-20T11:13:03.389Z,1024.5
2019-02-20T11:14:03.185Z,1024.5
2019-02-20T11:15:03.580Z,1024.5
2019-02-20T11:16:03.920Z,1024.4
2019-02-20T11:17:03.027Z,1024.5
2019-02-20T11:18:03.706Z,1024.5
2019-02-20T11:19:03.156Z,1024.5
2019-02-20T11:20:03.944Z,1024.5
2019-02-20T11:21:03.065Z,1024.5
2019-02-20T11:22:03.559Z,1024.5
2019-02-20T11:23:03.128Z,1024.6
2019-02-20T11:24:03.638Z,1024.5
2019-02-20T11:25:03.921Z,1024.5
2019-02-20T11:26:05.201Z,1024.5
2019-02-20T11:27:03.147Z,1024.6
2019-02-20T11:28:03.627Z,1024.6
2019-02-20T11:29:03.904Z,1024.5
2019-02-20T11:30:03.413Z,1024.7
2019-02-20T11:31:03.849Z,1024.7
2019-02-20T11:32:03.355Z,1024.7
2019-02-20T11:33:03.818Z,1024.6
2019-02-20T11:34:04.014Z,1024.7
2019-02-20T11:35:03.511Z,1024.7
2019-02-20T11:36:03.519Z,1024.7
2019-02-20T11:37:03.105Z,1024.6
2019-02-20T11:38:03.562Z,1024.7
2019-02-20T11:39:03.178Z,1024.8
2019-02-20T11:40:03.545Z,1024.7
2019-02-20T11:41:03.583Z,1024.8
2019-02-20T11:42:03.337Z,1024.8
2019-02-20T11:43:03.618Z,1024.8
2019-02-20T11:44:02.988Z,1024.7
2019-02-20T11:45:03.342Z,1024.8
2019-02-20T11:46:04.050Z,1024.7
2019-02-20T11:47:03.389Z,1024.8
2019-02-20T11:48:03.819Z,1024.9
2019-02-20T11:49:03.098Z,1024.9
2019-02-20T11:50:03.737Z,1024.9
2019-02-20T11:51:03.183Z,1024.9
2019-02-20T11:52:03.207Z,1024.8
2019-02-20T11:53:03.504Z,1024.8
2019-02-20T11:54:03.883Z,1024.9
2019-02-20T11:55:03.304Z,1024.8
2019-02-20T11:56:03.864Z,1024.8
2019-02-20T11:57:03.205Z,1024.7
2019-02-20T11:58:03.857Z,1024.8
2019-02-20T11:59:02.904Z,1024.9
2019-02-20T12:00:03.531Z,1024.9
2019-02-20T12:01:03.639Z,1024.8
2019-02-20T12:02:03.335Z,1024.8
2019-02-20T12:03:03.895Z,1024.6
2019-02-20T12:04:03.144Z,1024.8
2019-02-20T12:05:03.343Z,1024.7
2019-02-20T12:06:03.253Z,1024.8
2019-02-20T12:07:03.091Z,1024.7
2019-02-20T12:08:03.570Z,1024.7
2019-02-20T12:09:03.076Z,1024.7
2019-02-20T12:10:03.520Z,1024.7
2019-02-20T12:11:03.710Z,1024.7
2019-02-20T12:12:03.254Z,1024.5
2019-02-20T12:13:03.574Z,1024.6
2019-02-20T12:14:03.157Z,1024.6
2019-02-20T12:15:03.741Z,1024.5
2019-02-20T12:16:03.137Z,1024.4
2019-02-20T12:17:04.284Z,1024.3
2019-02-20T12:18:03.860Z,1024.3
2019-02-20T12:19:03.199Z,1024.4
2019-02-20T12:20:03.578Z,1024.4
2019-02-20T12:21:03.166Z,1024.2
2019-02-20T12:22:03.606Z,1024.3
2019-02-20T12:23:03.004Z,1024.4
2019-02-20T12:24:03.493Z,1024.4
2019-02-20T12:25:03.148Z,1024.2
2019-02-20T12:26:03.462Z,1024.3
2019-02-20T12:27:03.647Z,1024.3
2019-02-20T12:28:03.577Z,1024.3
2019-02-20T12:29:03.873Z,1024.3
2019-02-20T12:30:03.429Z,1024.3
2019-02-20T12:31:03.489Z,1024.4